Time;durP1;ratioP1;P1;durP2;ratioP2;P2;SDS_P1;SDS_P2;PMS_P1;PMS_P2;Temp;Humidity;BMP_temperature;BMP_pressure;BME280_temperature;BME280_humidity;BME280_pressure;Samples;Min_cycle;Max_cycle;Signal;HPM_P1;HPM_P2
2022/03/25 00:00:27;;;;;;;;;;;;;;;3.11;50.65;97993.84;10334706;28;20290;-61
2022/03/25 00:05:26;;;;;;;83.07;47.92;;;;;;;2.63;50.51;97916.22;10331650;28;19959;-61
2022/03/25 00:10:25;;;;;;;94.53;56.35;;;;;;;2.19;51.74;97843.94;10331763;28;20029;-61
2022/03/25 00:15:24;;;;;;;86.90;51.53;;;;;;;2.78;51.56;97937.25;10330980;28;20068;-61
2022/03/25 00:20:23;;;;;;;84.53;50.55;;;;;;;2.78;52.27;97950.91;10331262;28;20061;-61
2022/03/25 00:25:23;;;;;;;92.93;55.22;;;;;;;2.49;53.20;97931.13;10331325;28;20064;-61
2022/03/25 00:30:22;;;;;;;95.93;55.92;;;;;;;2.62;54.17;98004.16;10330938;28;20065;-61
2022/03/25 00:35:21;;;;;;;83.53;49.28;;;;;;;2.57;53.41;97975.84;10331022;28;20037;-61
2022/03/25 00:40:20;;;;;;;72.63;42.25;;;;;;;2.57;54.05;97997.19;10331163;28;20073;-61
2022/03/25 00:45:19;;;;;;;63.53;39.25;;;;;;;2.60;53.63;97991.28;10330759;28;20042;-61
2022/03/25 00:50:20;;;;;;;69.43;36.95;;;;;;;2.40;53.17;97951.34;10331316;28;20072;-61
2022/03/25 00:55:19;;;;;;;93.93;51.95;;;;;;;2.35;54.06;97948.63;10330366;28;20136;-61
2022/03/25 01:00:20;;;;;;;;;;;;;;;2.66;53.87;97990.66;10331181;28;20061;-61
2022/03/25 01:05:18;;;;;;;;;;;;;;;2.63;53.84;97988.88;10330778;28;19949;-61
2022/03/25 01:10:18;;;;;;;59.97;34.25;;;;;;;2.49;53.01;97965.34;10334276;28;19967;-61
2022/03/25 01:15:17;;;;;;;39.35;24.45;;;;;;;2.40;54.60;97994.88;10338211;28;20080;-61
2022/03/25 01:20:17;;;;;;;50.65;32.17;;;;;;;2.38;54.11;97970.06;10337961;28;20034;-61
2022/03/25 01:25:17;;;;;;;38.42;22.02;;;;;;;2.52;53.87;97998.72;10337831;28;20068;-61
2022/03/25 01:30:17;;;;;;;43.90;24.45;;;;;;;2.55;54.09;97998.81;10337352;28;20078;-61
2022/03/25 01:35:22;;;;;;;34.65;19.80;;;;;;;2.56;53.83;98008.28;10337648;28;20472;-61
2022/03/25 01:40:21;;;;;;;32.97;19.52;;;;;;;2.41;54.07;98002.59;10337141;28;20057;-61
2022/03/25 01:45:34;;;;;;;29.85;19.50;;;;;;;2.38;53.75;98007.63;10336624;28;20085;-61
2022/03/25 01:50:34;;;;;;;34.35;20.92;;;;;;;2.30;53.88;98003.91;10336930;28;20076;-61
2022/03/25 01:55:37;;;;;;;30.50;18.25;;;;;;;1.77;55.32;97954.22;10337617;28;20056;-61
2022/03/25 02:00:37;;;;;;;38.33;22.63;;;;;;;2.08;54.96;98022.75;10336771;28;20061;-61
2022/03/25 02:05:36;;;;;;;;;;;;;;;1.99;54.71;98030.97;10336680;28;20069;-61
2022/03/25 02:10:35;;;;;;;57.35;32.42;;;;;;;1.25;54.30;97900.34;10336060;28;19916;-61
2022/03/25 02:15:47;;;;;;;62.08;32.58;;;;;;;1.89;54.28;98008.41;10335778;28;20443;-61
2022/03/25 02:20:48;;;;;;;71.68;37.58;;;;;;;1.86;54.51;98005.75;10335502;28;20061;-61
2022/03/25 02:25:51;;;;;;;41.72;26.13;;;;;;;1.80;54.60;98003.81;10335366;28;20057;-61
2022/03/25 02:30:51;;;;;;;42.10;23.38;;;;;;;1.66;54.72;97987.94;10335286;28;20061;-61
2022/03/25 02:35:51;;;;;;;49.78;25.63;;;;;;;1.57;55.50;97990.16;10335333;28;20072;-61
2022/03/25 02:40:51;;;;;;;56.83;31.60;;;;;;;1.40;56.01;97981.84;10335054;28;20474;-61
2022/03/25 02:45:50;;;;;;;53.30;30.58;;;;;;;1.49;56.05;98012.03;10334409;28;20080;-61
2022/03/25 02:50:49;;;;;;;52.28;29.80;;;;;;;1.48;56.06;98020.50;10334879;28;20100;-61
2022/03/25 02:55:48;;;;;;;55.25;31.05;;;;;;;1.46;56.71;98024.69;10334464;28;20037;-61
2022/03/25 03:00:48;;;;;;;;;;;;;;;1.43;57.28;98024.56;10334766;28;20068;-61
2022/03/25 03:05:47;;;;;;;49.43;28.33;;;;;;;0.93;57.33;97939.97;10334093;28;19991;-61
2022/03/25 03:10:46;;;;;;;42.92;23.25;;;;;;;1.42;57.41;98012.59;10333343;28;20491;-61
2022/03/25 03:15:45;;;;;;;;;;;;;;;1.41;57.71;98010.84;10334204;28;20053;-61
2022/03/25 03:20:44;;;;;;;44.28;23.17;;;;;;;1.38;58.27;98018.41;10333362;28;19913;-61
2022/03/25 03:25:43;;;;;;;95.55;48.40;;;;;;;1.41;58.24;98018.50;10332883;28;20036;-61
2022/03/25 03:30:42;;;;;;;64.43;34.70;;;;;;;1.09;58.53;97969.56;10332696;28;20029;-61
2022/03/25 03:35:42;;;;;;;71.55;38.25;;;;;;;1.37;58.71;98014.97;10332604;28;20113;-61
2022/03/25 03:40:41;;;;;;;81.13;42.38;;;;;;;0.89;59.47;97959.41;10332621;28;20475;-61
2022/03/25 03:45:40;;;;;;;78.68;40.28;;;;;;;0.79;59.94;97948.75;10332230;28;20577;-61
2022/03/25 03:50:39;;;;;;;67.43;39.25;;;;;;;0.44;59.91;97907.34;10331984;28;20030;-61
2022/03/25 03:55:38;;;;;;;94.75;49.65;;;;;;;1.08;59.91;98014.69;10332028;28;20065;-61
2022/03/25 04:00:37;;;;;;;73.07;40.33;;;;;;;0.99;59.97;97998.09;10332246;28;20138;-61
2022/03/25 04:05:36;;;;;;;87.88;45.22;;;;;;;0.84;59.88;97966.00;10335021;28;20068;-61
2022/03/25 04:10:35;;;;;;;103.53;51.50;;;;;;;0.79;60.19;97970.06;10335000;28;20035;-61
2022/03/25 04:15:34;;;;;;;109.88;53.75;;;;;;;1.03;60.67;97999.97;10334366;28;20057;-61
2022/03/25 04:20:34;;;;;;;132.05;70.13;;;;;;;0.97;61.50;98005.72;10335656;28;20068;-61
2022/03/25 04:25:33;;;;;;;141.85;76.43;;;;;;;0.95;61.83;98019.25;10334435;28;20175;-61
2022/03/25 04:30:34;;;;;;;113.13;60.53;;;;;;;0.48;62.16;97932.19;10334813;28;20140;-61
2022/03/25 04:35:33;;;;;;;119.00;59.03;;;;;;;0.91;63.27;98013.13;10334740;28;20120;-61
2022/03/25 04:40:33;;;;;;;98.63;52.20;;;;;;;1.04;62.37;98011.97;10334323;28;20073;-61
2022/03/25 04:45:33;;;;;;;124.95;67.00;;;;;;;1.04;62.34;98002.59;10338690;28;20491;-61
2022/03/25 04:50:32;;;;;;;109.22;61.40;;;;;;;0.98;62.31;98001.47;10342492;28;20064;-61
2022/03/25 04:55:31;;;;;;;106.68;54.90;;;;;;;0.85;62.49;98012.84;10342578;28;20029;-61
2022/03/25 05:00:30;;;;;;;102.32;52.75;;;;;;;0.73;61.82;98003.00;10341651;28;20061;-61
2022/03/25 05:05:30;;;;;;;94.18;49.30;;;;;;;0.79;62.02;98026.25;10337054;28;20044;-61
2022/03/25 05:10:29;;;;;;;72.85;43.33;;;;;;;0.77;62.15;98014.25;10338343;28;20065;-61
2022/03/25 05:15:28;;;;;;;;;;;;;;;0.87;62.00;98030.03;10338160;28;20103;-61
2022/03/25 05:20:27;;;;;;;92.45;51.88;;;;;;;1.01;61.75;98027.16;10256754;28;20011;-61
2022/03/25 05:25:26;;;;;;;84.93;46.35;;;;;;;1.02;61.18;98009.31;10337833;28;20071;-61
2022/03/25 05:30:32;;;;;;;82.13;48.08;;;;;;;1.07;60.73;97982.28;10312240;28;20049;-61
2022/03/25 05:35:31;;;;;;;93.32;52.63;;;;;;;1.50;60.94;98016.31;10296573;28;20072;-61
2022/03/25 05:40:30;;;;;;;125.25;79.68;;;;;;;1.70;61.03;98012.84;10273791;28;20081;-62
2022/03/25 05:45:29;;;;;;;82.43;45.80;;;;;;;1.89;60.32;98023.78;10292518;28;20411;-62
2022/03/25 05:50:28;;;;;;;99.95;57.40;;;;;;;1.79;59.61;97953.47;10268237;28;20030;-61
2022/03/25 05:55:27;;;;;;;84.20;51.60;;;;;;;2.36;58.76;98016.94;10298729;28;20517;-61
2022/03/25 06:00:26;;;;;;;92.38;55.38;;;;;;;2.48;58.29;97986.63;10336475;28;20537;-61
2022/03/25 06:05:25;;;;;;;87.03;50.38;;;;;;;2.83;57.83;98015.13;10334248;28;20064;-61
2022/03/25 06:10:25;;;;;;;;;;;;;;;2.97;58.69;98007.91;10336264;28;20067;-61
2022/03/25 06:15:24;;;;;;;107.10;63.20;;;;;;;3.25;57.92;98001.97;10334094;28;19959;-61
2022/03/25 06:20:23;;;;;;;150.80;86.78;;;;;;;3.50;56.92;97998.50;10333702;28;20064;-61
2022/03/25 06:25:22;;;;;;;167.38;105.90;;;;;;;3.73;56.60;98024.88;10328697;28;20091;-61
2022/03/25 06:30:25;;;;;;;79.18;47.33;;;;;;;3.93;55.15;98004.91;10331516;28;20083;-61
2022/03/25 06:35:24;;;;;;;116.03;68.32;;;;;;;3.93;54.07;97945.84;10332621;28;20064;-61
2022/03/25 06:40:24;;;;;;;77.25;46.92;;;;;;;4.57;53.13;98013.56;10332294;28;20120;-61
2022/03/25 06:45:25;;;;;;;68.28;43.15;;;;;;;4.37;52.13;97941.06;10333876;28;20533;-61
2022/03/25 06:50:24;;;;;;;65.10;43.10;;;;;;;4.50;51.79;97931.97;10332712;28;20056;-61
2022/03/25 06:55:23;;;;;;;;;;;;;;;5.29;50.08;98009.38;10334647;28;20137;-61
2022/03/25 07:00:24;;;;;;;51.00;32.67;;;;;;;5.53;48.93;98006.50;10334800;28;20007;-61
2022/03/25 07:05:24;;;;;;;78.90;53.28;;;;;;;5.65;48.90;97970.75;10305672;28;20068;-61
2022/03/25 07:10:23;;;;;;;79.78;52.13;;;;;;;6.10;48.51;97998.31;10324991;28;20057;-61
2022/03/25 07:15:23;;;;;;;81.25;48.38;;;;;;;6.34;48.59;97979.03;10337001;28;20057;-61
2022/03/25 07:20:25;;;;;;;79.85;46.88;;;;;;;6.13;47.76;97874.69;10336719;28;20061;-61
2022/03/25 07:25:25;;;;;;;81.82;48.88;;;;;;;7.08;46.60;97988.97;10337221;28;20107;-61
2022/03/25 07:30:24;;;;;;;77.70;46.38;;;;;;;7.48;46.01;97992.19;10336800;28;20028;-61
2022/03/25 07:35:25;;;;;;;67.53;39.92;;;;;;;7.85;45.93;97988.44;10336253;28;20029;-61
2022/03/25 07:40:24;;;;;;;72.97;42.00;;;;;;;8.24;44.04;97991.47;10336170;28;20071;-61
2022/03/25 07:45:23;;;;;;;67.55;41.28;;;;;;;8.61;43.86;97997.94;10335610;28;20057;-61
2022/03/25 07:50:23;;;;;;;62.25;39.58;;;;;;;8.96;41.89;97986.22;10335872;28;20033;-61
2022/03/25 07:55:23;;;;;;;70.90;45.20;;;;;;;9.41;40.91;97997.84;10335397;28;20072;-61
2022/03/25 08:00:21;;;;;;;50.67;35.38;;;;;;;9.81;40.39;98001.56;10335005;28;20068;-61
2022/03/25 08:05:21;;;;;;;33.30;21.30;;;;;;;10.11;38.12;97990.47;10331830;28;20037;-61
2022/03/25 08:10:26;;;;;;;26.92;19.33;;;;;;;10.38;37.90;97996.66;10330704;28;20484;-61
2022/03/25 08:15:27;;;;;;;40.55;22.70;;;;;;;10.69;36.94;97992.41;10331473;28;20519;-61
2022/03/25 08:20:33;;;;;;;32.80;19.13;;;;;;;11.07;36.33;97995.97;10329717;28;20057;-61
2022/03/25 08:30:50;;;;;;;20.45;12.70;;;;;;;11.74;32.61;97993.34;10331829;28;20506;-61
2022/03/25 08:35:49;;;;;;;22.45;13.13;;;;;;;12.24;29.71;98002.72;10330936;28;20487;-61
2022/03/25 08:40:48;;;;;;;19.52;12.32;;;;;;;13.04;28.38;97989.31;10330895;28;20037;-61
2022/03/25 08:45:47;;;;;;;24.25;11.65;;;;;;;13.29;26.42;97968.28;10330007;28;20061;-62
2022/03/25 08:50:46;;;;;;;25.13;12.80;;;;;;;13.60;25.91;97978.47;10330426;28;20483;-61
2022/03/25 08:55:45;;;;;;;21.33;14.55;;;;;;;13.79;25.43;98008.69;10330521;28;20120;-61
2022/03/25 09:00:44;;;;;;;23.15;13.02;;;;;;;13.98;26.21;98010.25;10329826;28;20065;-61
2022/03/25 09:05:43;;;;;;;14.88;10.52;;;;;;;13.96;24.45;98019.84;10330414;28;20061;-61
2022/03/25 09:10:42;;;;;;;22.38;12.73;;;;;;;13.95;24.34;98017.25;10330172;28;20365;-60
2022/03/25 09:15:41;;;;;;;;;;;;;;;14.04;23.82;98011.06;10330062;28;20065;-60
2022/03/25 09:20:40;;;;;;;21.10;9.93;;;;;;;14.23;23.96;97996.94;10329724;28;19913;-60
2022/03/25 09:25:39;;;;;;;;;;;;;;;14.27;23.31;97988.19;10330372;28;20474;-60
2022/03/25 09:30:39;;;;;;;19.90;10.77;;;;;;;14.35;22.09;98012.44;10332810;28;20404;-60
2022/03/25 09:35:40;;;;;;;14.18;8.65;;;;;;;14.43;21.78;98009.75;10337466;28;20471;-60
2022/03/25 09:40:41;;;;;;;16.95;11.52;;;;;;;14.46;21.94;97995.78;10337296;28;20073;-60
2022/03/25 09:45:40;;;;;;;14.93;8.95;;;;;;;14.37;22.17;98005.44;10337233;28;20081;-61
2022/03/25 09:50:40;;;;;;;17.08;9.75;;;;;;;14.50;22.75;98008.78;10336944;28;20068;-61
2022/03/25 09:55:41;;;;;;;35.35;25.85;;;;;;;14.43;22.46;97999.31;10335312;28;20072;-61
2022/03/25 10:00:40;;;;;;;16.45;10.18;;;;;;;14.56;23.21;98011.31;10336783;28;20061;-61
2022/03/25 10:05:53;;;;;;;17.30;10.35;;;;;;;14.63;20.89;98012.94;10339487;28;20403;-61
2022/03/25 10:10:53;;;;;;;17.88;9.90;;;;;;;14.64;22.22;98024.28;10340020;28;20053;-61
2022/03/25 10:15:52;;;;;;;14.10;9.20;;;;;;;14.54;21.09;98007.00;10337022;28;20510;-61
2022/03/25 10:20:54;;;;;;;17.27;9.35;;;;;;;14.51;21.42;98012.25;10337643;28;20618;-61
2022/03/25 10:25:56;;;;;;;16.85;9.50;;;;;;;14.45;21.72;98002.72;10339392;28;20071;-61
2022/03/25 10:30:59;;;;;;;13.75;9.85;;;;;;;14.58;22.41;98011.28;10338128;28;20156;-61
2022/03/25 10:36:07;;;;;;;17.27;9.80;;;;;;;14.58;21.76;98000.84;10338262;28;20065;-61
2022/03/25 10:41:06;;;;;;;17.23;10.50;;;;;;;14.72;21.67;98005.94;10338069;28;20065;-61
2022/03/25 10:46:05;;;;;;;16.17;10.07;;;;;;;14.83;21.37;98006.66;10338509;28;20100;-61
2022/03/25 10:51:10;;;;;;;15.38;8.90;;;;;;;14.90;20.74;98004.81;10338391;28;20089;-61
2022/03/25 10:56:12;;;;;;;15.15;8.25;;;;;;;14.90;19.91;97983.91;10337505;28;20076;-61
2022/03/25 11:01:11;;;;;;;13.75;8.52;;;;;;;14.93;20.14;97999.53;10336462;28;20076;-61
2022/03/25 11:06:15;;;;;;;18.17;9.90;;;;;;;14.95;20.53;97989.94;10333722;28;20073;-62
2022/03/25 11:11:17;;;;;;;12.55;7.50;;;;;;;15.05;19.76;97988.88;10333361;28;20060;-62
2022/03/25 11:16:18;;;;;;;16.02;8.07;;;;;;;15.02;19.83;97987.19;10333024;28;20068;-62
2022/03/25 11:21:18;;;;;;;15.75;8.27;;;;;;;15.07;20.10;98005.41;10332919;28;20487;-62
2022/03/25 11:26:21;;;;;;;13.05;8.25;;;;;;;15.13;20.38;97968.75;10333102;28;20072;-62
2022/03/25 11:31:20;;;;;;;14.27;8.70;;;;;;;15.33;19.11;97973.63;10332808;28;20057;-62
2022/03/25 11:36:19;;;;;;;15.95;8.20;;;;;;;15.27;19.43;97988.56;10332541;28;20440;-62
2022/03/25 11:41:27;;;;;;;16.02;8.10;;;;;;;15.24;18.71;97989.47;10332108;28;20040;-60
2022/03/25 11:46:27;;;;;;;12.70;7.43;;;;;;;15.29;19.03;97971.94;10332296;28;20088;-60
2022/03/25 11:51:29;;;;;;;12.20;8.65;;;;;;;15.30;18.76;97967.59;10331921;28;20506;-60
2022/03/25 11:56:46;;;;;;;15.43;8.05;;;;;;;15.34;19.04;97966.66;10331986;28;20072;-60
2022/03/25 12:01:45;;;;;;;11.98;8.30;;;;;;;15.34;18.67;97982.34;10330334;28;20084;-61
2022/03/25 12:07:06;;;;;;;;;;;;;;;15.33;18.77;97964.94;10332028;28;20073;-61
2022/03/25 12:12:06;;;;;;;11.60;7.10;;;;;;;15.35;17.79;97973.63;10331691;28;19980;-61
2022/03/25 12:17:12;;;;;;;14.20;8.77;;;;;;;15.45;18.50;97964.72;10331106;28;20057;-61
2022/03/25 12:22:23;;;;;;;16.40;8.80;;;;;;;15.41;17.80;97965.66;10331280;28;20574;-61
2022/03/25 12:27:23;;;;;;;14.35;7.97;;;;;;;15.51;18.02;97956.78;10329942;28;20069;-61
2022/03/25 12:32:25;;;;;;;14.32;8.50;;;;;;;15.61;17.52;97940.00;10330978;28;20061;-61
2022/03/25 12:37:37;;;;;;;13.50;8.43;;;;;;;15.70;17.15;97944.22;10330745;28;20065;-61
2022/03/25 12:42:36;;;;;;;14.85;8.23;;;;;;;15.72;17.11;97946.81;10330881;28;20080;-61
2022/03/25 12:47:37;;;;;;;13.30;7.50;;;;;;;15.53;16.63;97900.06;10330597;28;20487;-61
2022/03/25 12:52:36;;;;;;;11.18;6.60;;;;;;;15.82;16.50;97919.63;10330793;28;20064;-61
2022/03/25 12:57:38;;;;;;;13.32;6.85;;;;;;;15.86;15.96;97934.38;10331196;28;20040;-61
2022/03/25 13:02:39;;;;;;;13.93;7.45;;;;;;;15.93;16.13;97938.59;10330234;28;20513;-61
2022/03/25 13:07:42;;;;;;;10.93;6.32;;;;;;;15.99;16.09;97927.97;10334653;28;20153;-61
2022/03/25 13:12:43;;;;;;;15.02;8.52;;;;;;;16.11;16.21;97926.88;10338263;28;20071;-61
2022/03/25 13:17:44;;;;;;;11.25;7.05;;;;;;;15.97;15.56;97949.84;10337655;28;20057;-61
2022/03/25 13:22:59;;;;;;;13.75;7.40;;;;;;;15.88;15.38;97943.06;10337829;28;20061;-61
2022/03/25 13:28:00;;;;;;;12.35;7.00;;;;;;;15.87;15.34;97918.63;10337526;28;20072;-61
2022/03/25 13:33:05;;;;;;;11.77;6.80;;;;;;;15.80;15.56;97919.63;10337786;28;20056;-61
2022/03/25 13:38:16;;;;;;;11.02;7.22;;;;;;;15.88;15.79;97919.50;10337237;28;20067;-61
2022/03/25 13:43:20;;;;;;;12.63;8.00;;;;;;;16.00;16.13;97924.50;10337083;28;20079;-61
2022/03/25 13:48:19;;;;;;;17.23;10.43;;;;;;;15.91;15.81;97903.72;10336931;28;20109;-61
2022/03/25 13:53:35;;;;;;;16.05;9.55;;;;;;;16.00;15.83;97923.63;10336677;28;20510;-61
2022/03/25 13:58:34;;;;;;;13.05;7.22;;;;;;;15.93;16.52;97911.53;10334638;28;20061;-61
2022/03/25 14:03:33;;;;;;;;;;;;;;;16.05;16.25;97912.16;10333438;28;20076;-62
2022/03/25 14:08:33;;;;;;;9.83;6.90;;;;;;;15.95;16.61;97918.50;10316510;28;19948;-62
2022/03/25 14:13:32;;;;;;;13.38;8.43;;;;;;;16.08;16.38;97926.94;10335947;28;20538;-62
2022/03/25 14:18:34;;;;;;;;;;;;;;;16.05;16.87;97909.53;10332446;28;20162;-62
2022/03/25 14:23:33;;;;;;;20.42;12.70;;;;;;;16.04;17.01;97931.41;10335255;28;20385;-62
2022/03/25 14:28:32;;;;;;;16.70;9.43;;;;;;;16.18;17.31;97922.38;10335700;28;20501;-62
2022/03/25 14:33:31;;;;;;;12.82;8.63;;;;;;;16.11;17.14;97907.69;10335307;28;20112;-62
2022/03/25 14:38:30;;;;;;;15.55;8.68;;;;;;;16.14;17.03;97925.94;10335201;28;20029;-62
2022/03/25 14:43:29;;;;;;;16.70;9.52;;;;;;;16.01;17.49;97935.81;10334805;28;20065;-62
2022/03/25 14:48:28;;;;;;;14.75;9.13;;;;;;;15.93;17.42;97943.81;10334466;28;20056;-62
2022/03/25 14:53:27;;;;;;;14.05;8.65;;;;;;;15.81;16.85;97928.34;10334650;28;20031;-62
2022/03/25 14:58:26;;;;;;;9.60;4.75;;;;;;;15.77;15.54;97931.91;10334523;28;20064;-62
2022/03/25 15:03:25;;;;;;;9.93;4.80;;;;;;;15.82;15.14;97946.63;10336417;28;20030;-62
2022/03/25 15:08:24;;;;;;;;;;;;;;;15.73;14.60;97967.72;10338477;28;20061;-62
2022/03/25 15:13:23;;;;;;;8.93;4.75;;;;;;;15.61;14.59;97947.88;10338666;28;19915;-62
2022/03/25 15:18:24;;;;;;;11.57;5.15;;;;;;;15.35;15.00;97976.22;10337023;28;20056;-62
2022/03/25 15:23:23;;;;;;;9.38;4.53;;;;;;;15.15;15.14;98011.38;10337305;28;20099;-62
2022/03/25 15:28:22;;;;;;;18.58;6.93;;;;;;;14.95;15.71;97976.88;10335753;28;20384;-62
2022/03/25 15:38:39;;;;;;;12.35;7.18;;;;;;;14.85;16.43;97988.31;10296074;28;20065;-62
2022/03/25 15:43:38;;;;;;;10.65;5.43;;;;;;;14.74;16.35;97999.78;10295526;28;20034;-62
2022/03/25 15:48:37;;;;;;;16.30;7.63;;;;;;;14.52;16.33;98014.88;10295197;28;20447;-62
2022/03/25 15:53:37;;;;;;;19.50;7.97;;;;;;;14.50;16.96;98018.34;10295475;28;20113;-62
2022/03/25 15:58:36;;;;;;;11.23;5.88;;;;;;;14.36;17.15;98031.59;10327375;28;20091;-62
2022/03/25 16:03:35;;;;;;;14.07;7.22;;;;;;;14.16;17.37;98043.09;10331144;28;20427;-62
2022/03/25 16:08:35;;;;;;;11.80;5.78;;;;;;;14.05;17.43;98064.97;10315093;28;20060;-62
2022/03/25 16:13:34;;;;;;;17.70;8.90;;;;;;;14.02;17.64;98054.56;10330509;28;20065;-62
2022/03/25 16:18:33;;;;;;;15.00;8.10;;;;;;;13.90;18.40;98059.03;10330961;28;20036;-61
2022/03/25 16:23:32;;;;;;;22.95;13.68;;;;;;;13.79;18.92;98063.47;10330827;28;20076;-62
2022/03/25 16:28:31;;;;;;;17.52;10.27;;;;;;;13.68;19.44;98080.94;10331139;28;20068;-62
2022/03/25 16:33:31;;;;;;;23.42;11.55;;;;;;;13.47;20.13;98081.94;10303733;28;20095;-62
2022/03/25 16:38:31;;;;;;;19.38;13.00;;;;;;;13.41;20.35;98085.47;10330934;28;20061;-62
2022/03/25 16:43:30;;;;;;;20.02;10.65;;;;;;;13.17;21.10;98104.75;10312953;28;20072;-62
2022/03/25 16:48:32;;;;;;;16.42;10.73;;;;;;;13.06;21.34;98099.59;10331220;28;20096;-62
2022/03/25 16:53:32;;;;;;;19.33;11.23;;;;;;;12.73;21.75;98051.16;10330333;28;20068;-61
2022/03/25 16:58:31;;;;;;;23.05;12.65;;;;;;;13.07;22.40;98101.34;10329999;28;20065;-62
2022/03/25 17:03:30;;;;;;;20.02;11.65;;;;;;;12.97;22.39;98117.00;10318777;28;20075;-61
2022/03/25 17:08:31;;;;;;;19.75;13.57;;;;;;;12.95;23.02;98103.97;10330265;28;20073;-62
2022/03/25 17:13:29;;;;;;;19.67;10.52;;;;;;;12.72;23.01;98091.09;10329142;28;20073;-62
2022/03/25 17:18:28;;;;;;;39.10;25.90;;;;;;;12.91;23.36;98125.75;10329920;28;20124;-61
2022/03/25 17:23:28;;;;;;;43.85;28.77;;;;;;;12.66;24.40;98125.81;10330340;28;20034;-62
2022/03/25 17:28:27;;;;;;;46.83;36.80;;;;;;;12.28;24.78;98131.13;10329865;28;20061;-61
2022/03/25 17:33:27;;;;;;;32.70;18.20;;;;;;;11.98;25.34;98138.06;10330188;28;20040;-62
2022/03/25 17:38:25;;;;;;;34.25;19.40;;;;;;;11.40;25.69;98092.09;10330000;28;20072;-62
2022/03/25 17:43:26;;;;;;;16.08;8.90;;;;;;;11.45;25.83;98136.28;10328671;28;20041;-62
2022/03/25 17:48:27;;;;;;;16.33;9.20;;;;;;;10.90;26.65;98063.47;10330125;28;20081;-62
2022/03/25 17:53:29;;;;;;;26.67;15.00;;;;;;;11.43;27.19;98167.50;10335138;28;20472;-61
2022/03/25 17:58:28;;;;;;;16.63;9.80;;;;;;;11.20;27.93;98201.19;10336372;28;20061;-61
2022/03/25 18:03:28;;;;;;;26.30;11.88;;;;;;;11.20;29.01;98239.31;10334690;28;20025;-62
2022/03/25 18:08:27;;;;;;;32.88;14.70;;;;;;;11.33;29.13;98243.66;10336503;28;20559;-61
2022/03/25 18:13:26;;;;;;;32.28;12.65;;;;;;;11.34;29.05;98258.41;10335833;28;20064;-61
2022/03/25 18:18:28;;;;;;;28.17;14.00;;;;;;;11.27;29.21;98268.75;10336039;28;20092;-61
2022/03/25 18:23:27;;;;;;;37.50;16.55;;;;;;;11.29;29.24;98293.00;10335277;28;20068;-61
2022/03/25 18:28:26;;;;;;;39.83;15.52;;;;;;;11.17;30.22;98297.28;10335870;28;20064;-61
2022/03/25 18:33:25;;;;;;;26.77;13.90;;;;;;;10.73;32.05;98320.34;10335611;28;20061;-61
2022/03/25 18:38:24;;;;;;;30.23;15.75;;;;;;;10.60;32.32;98335.81;10335506;28;20087;-61
2022/03/25 18:43:23;;;;;;;37.22;16.65;;;;;;;10.57;32.41;98341.00;10334540;28;20033;-61
2022/03/25 18:48:22;;;;;;;;;;;;;;;10.62;32.48;98367.84;10334035;28;20456;-61
2022/03/25 18:53:22;;;;;;;34.65;15.63;;;;;;;10.20;34.37;98334.59;10334345;28;20378;-61
2022/03/25 18:58:21;;;;;;;34.38;14.55;;;;;;;10.33;35.17;98403.91;10333902;28;20602;-61
2022/03/25 19:03:20;;;;;;;30.15;13.55;;;;;;;10.15;36.11;98425.31;10332744;28;20549;-61
2022/03/25 19:08:19;;;;;;;35.80;20.00;;;;;;;9.98;36.34;98429.47;10334354;28;20039;-61
2022/03/25 19:13:20;;;;;;;26.52;15.48;;;;;;;9.02;36.56;98380.63;10333440;28;20471;-61
2022/03/25 19:18:19;;;;;;;25.90;12.52;;;;;;;9.12;37.19;98447.22;10333369;28;20069;-61
2022/03/25 19:23:18;;;;;;;31.08;13.57;;;;;;;9.07;37.67;98453.19;10332966;28;20138;-61
2022/03/25 19:28:17;;;;;;;26.55;14.50;;;;;;;9.03;37.98;98464.31;10333608;28;20061;-61
2022/03/25 19:33:16;;;;;;;20.38;12.55;;;;;;;8.88;38.41;98472.69;10332975;28;20033;-61
2022/03/25 19:38:16;;;;;;;26.50;12.27;;;;;;;9.05;37.95;98473.00;10333178;28;20410;-61
2022/03/25 19:43:16;;;;;;;28.90;15.07;;;;;;;9.06;38.50;98485.06;10332860;28;20495;-61
2022/03/25 19:48:15;;;;;;;31.15;14.52;;;;;;;8.57;38.89;98420.41;10333208;28;20520;-61
2022/03/25 19:53:14;;;;;;;32.33;13.98;;;;;;;8.49;39.45;98417.69;10332424;28;20069;-61
2022/03/25 19:58:13;;;;;;;33.95;18.20;;;;;;;8.70;39.93;98492.22;10332513;28;20050;-61
2022/03/25 20:03:13;;;;;;;102.13;56.50;;;;;;;8.61;39.57;98505.00;10332993;28;20511;-61
2022/03/25 20:08:12;;;;;;;47.85;25.00;;;;;;;8.41;40.05;98494.28;10335462;28;20103;-61
2022/03/25 20:13:12;;;;;;;66.10;30.70;;;;;;;8.45;39.85;98523.66;10334930;28;20149;-61
2022/03/25 20:18:11;;;;;;;68.50;32.38;;;;;;;8.30;39.77;98532.84;10334420;28;20072;-61
2022/03/25 20:23:11;;;;;;;153.75;66.80;;;;;;;8.18;40.03;98540.34;10334870;28;20510;-61
2022/03/25 20:28:11;;;;;;;28.20;15.95;;;;;;;7.94;41.04;98556.19;10333525;28;20657;-61
2022/03/25 20:33:09;;;;;;;289.17;141.82;;;;;;;7.74;41.79;98553.16;10334284;28;20066;-61
2022/03/25 20:38:09;;;;;;;142.32;71.25;;;;;;;7.79;41.18;98561.88;10334554;28;20037;-61
2022/03/25 20:43:08;;;;;;;40.33;20.27;;;;;;;7.75;41.43;98569.53;10334345;28;20061;-61
2022/03/25 20:48:07;;;;;;;26.20;14.68;;;;;;;7.63;41.73;98577.88;10334091;28;20083;-61
2022/03/25 20:53:06;;;;;;;26.13;15.73;;;;;;;7.47;42.07;98586.94;10334278;28;20039;-61
2022/03/25 20:58:05;;;;;;;27.40;15.10;;;;;;;7.15;41.82;98555.16;10334853;28;20049;-61
2022/03/25 21:03:04;;;;;;;29.95;16.63;;;;;;;6.79;42.57;98523.25;10331776;28;20121;-61
2022/03/25 21:08:04;;;;;;;33.97;17.17;;;;;;;7.15;42.85;98607.63;10330375;28;20471;-61
2022/03/25 21:13:05;;;;;;;;;;;;;;;7.12;42.46;98606.66;10330913;28;20064;-61
2022/03/25 21:18:05;;;;;;;29.55;16.55;;;;;;;6.83;42.21;98558.63;10330014;28;19952;-61
2022/03/25 21:23:07;;;;;;;38.42;18.95;;;;;;;7.11;42.74;98612.69;10330213;28;20099;-61
2022/03/25 21:28:09;;;;;;;32.00;18.63;;;;;;;6.98;42.47;98588.25;10335727;28;20065;-61
2022/03/25 21:33:08;;;;;;;44.30;24.95;;;;;;;7.09;43.16;98617.78;10337867;28;20056;-61
2022/03/25 21:38:08;;;;;;;52.03;29.08;;;;;;;6.41;42.82;98509.34;10338008;28;20033;-61
2022/03/25 21:43:11;;;;;;;38.20;23.95;;;;;;;6.68;43.54;98550.50;10337940;28;20064;-61
2022/03/25 21:48:09;;;;;;;37.72;21.08;;;;;;;7.01;43.05;98616.72;10337592;28;20096;-61
2022/03/25 21:53:09;;;;;;;30.55;17.77;;;;;;;6.95;43.61;98619.13;10337095;28;20021;-61
2022/03/25 21:58:10;;;;;;;27.83;15.30;;;;;;;6.82;44.26;98623.09;10337074;28;20079;-61
2022/03/25 22:03:09;;;;;;;27.88;15.77;;;;;;;6.70;44.41;98623.63;10337403;28;20081;-61
2022/03/25 22:08:09;;;;;;;28.45;14.73;;;;;;;6.60;44.67;98621.59;10336592;28;20132;-61
2022/03/25 22:13:08;;;;;;;32.83;16.33;;;;;;;6.40;44.74;98626.19;10336952;28;20064;-61
2022/03/25 22:18:07;;;;;;;29.80;14.77;;;;;;;6.31;45.05;98631.94;10335951;28;20068;-61
2022/03/25 22:23:06;;;;;;;26.10;14.38;;;;;;;6.07;45.27;98618.28;10335834;28;20029;-61
2022/03/25 22:28:05;;;;;;;28.30;16.02;;;;;;;6.03;45.49;98626.78;10336042;28;20067;-61
2022/03/25 22:33:04;;;;;;;35.17;16.88;;;;;;;5.91;46.65;98638.44;10335850;28;20067;-61
2022/03/25 22:38:04;;;;;;;41.28;24.33;;;;;;;5.66;46.96;98641.06;10335470;28;20030;-61
2022/03/25 22:43:04;;;;;;;36.38;22.25;;;;;;;5.53;47.46;98635.50;10335737;28;20063;-61
2022/03/25 22:48:03;;;;;;;38.03;23.00;;;;;;;5.27;49.33;98665.50;10335089;28;20506;-61
2022/03/25 22:53:02;;;;;;;41.25;22.95;;;;;;;4.42;49.91;98547.59;10334895;28;20071;-61
2022/03/25 22:58:01;;;;;;;41.47;24.67;;;;;;;4.89;50.13;98649.56;10334529;28;20076;-61
2022/03/25 23:03:00;;;;;;;30.45;19.10;;;;;;;4.60;51.21;98657.94;10336810;28;20087;-61
2022/03/25 23:07:59;;;;;;;35.78;20.33;;;;;;;4.41;51.79;98618.69;10337805;28;20029;-61
2022/03/25 23:13:03;;;;;;;35.30;19.73;;;;;;;4.35;52.22;98661.25;10337271;28;20025;-61